sensor_id;sensor_type;location;lat;lon;timestamp;pressure;altitude;pressure_sealevel;temperature;humidity
40089;BME280;25793;55.706;13.186;2022-08-21T00:00:25;100850.81;;;18.81;58.24
40089;BME280;25793;55.706;13.186;2022-08-21T00:03:08;100844.84;;;18.79;58.29
40089;BME280;25793;55.706;13.186;2022-08-21T00:05:45;100840.16;;;18.72;58.62
40089;BME280;25793;55.706;13.186;2022-08-21T00:08:12;100831.69;;;18.69;58.76
40089;BME280;25793;55.706;13.186;2022-08-21T00:10:41;100833.25;;;18.71;58.82
40089;BME280;25793;55.706;13.186;2022-08-21T00:13:09;100823.09;;;18.76;58.61
40089;BME280;25793;55.706;13.186;2022-08-21T00:15:38;100825.47;;;18.70;58.69
40089;BME280;25793;55.706;13.186;2022-08-21T00:18:07;100826.84;;;18.64;58.96
40089;BME280;25793;55.706;13.186;2022-08-21T00:20:34;100819.50;;;18.58;59.12
40089;BME280;25793;55.706;13.186;2022-08-21T00:23:01;100822.00;;;18.69;58.92
40089;BME280;25793;55.706;13.186;2022-08-21T00:25:28;100821.44;;;18.66;58.79
40089;BME280;25793;55.706;13.186;2022-08-21T00:27:56;100820.88;;;18.72;58.75
40089;BME280;25793;55.706;13.186;2022-08-21T00:30:25;100820.59;;;18.75;58.56
40089;BME280;25793;55.706;13.186;2022-08-21T00:32:53;100814.38;;;18.76;58.50
40089;BME280;25793;55.706;13.186;2022-08-21T00:35:34;100817.13;;;18.74;58.14
40089;BME280;25793;55.706;13.186;2022-08-21T00:38:02;100821.44;;;18.75;58.19
40089;BME280;25793;55.706;13.186;2022-08-21T00:40:36;100818.09;;;18.73;57.97
40089;BME280;25793;55.706;13.186;2022-08-21T00:43:07;100823.66;;;18.70;58.07
40089;BME280;25793;55.706;13.186;2022-08-21T00:45:34;100825.72;;;18.67;58.12
40089;BME280;25793;55.706;13.186;2022-08-21T00:48:02;100818.66;;;18.57;58.50
40089;BME280;25793;55.706;13.186;2022-08-21T00:50:31;100823.38;;;18.64;58.36
40089;BME280;25793;55.706;13.186;2022-08-21T00:53:00;100816.03;;;18.57;58.46
40089;BME280;25793;55.706;13.186;2022-08-21T00:55:28;100823.22;;;18.55;58.61
40089;BME280;25793;55.706;13.186;2022-08-21T00:57:59;100818.66;;;18.57;58.52
40089;BME280;25793;55.706;13.186;2022-08-21T01:00:30;100817.69;;;18.58;58.32
40089;BME280;25793;55.706;13.186;2022-08-21T01:02:59;100821.97;;;18.59;58.11
40089;BME280;25793;55.706;13.186;2022-08-21T01:05:32;100823.09;;;18.67;57.92
40089;BME280;25793;55.706;13.186;2022-08-21T01:07:59;100820.88;;;18.82;57.63
40089;BME280;25793;55.706;13.186;2022-08-21T01:10:26;100826.81;;;18.94;57.16
40089;BME280;25793;55.706;13.186;2022-08-21T01:12:54;100815.63;;;19.01;56.59
40089;BME280;25793;55.706;13.186;2022-08-21T01:15:25;100827.13;;;19.10;56.37
40089;BME280;25793;55.706;13.186;2022-08-21T01:17:53;100812.41;;;19.17;56.27
40089;BME280;25793;55.706;13.186;2022-08-21T01:20:20;100819.06;;;19.21;55.95
40089;BME280;25793;55.706;13.186;2022-08-21T01:22:47;100828.09;;;19.09;55.73
40089;BME280;25793;55.706;13.186;2022-08-21T01:25:15;100830.72;;;18.89;56.14
40089;BME280;25793;55.706;13.186;2022-08-21T01:27:43;100822.00;;;18.69;57.16
40089;BME280;25793;55.706;13.186;2022-08-21T01:30:18;100826.56;;;18.77;57.16
40089;BME280;25793;55.706;13.186;2022-08-21T01:32:46;100840.84;;;18.84;57.28
40089;BME280;25793;55.706;13.186;2022-08-21T01:35:15;100837.78;;;18.50;58.47
40089;BME280;25793;55.706;13.186;2022-08-21T01:37:43;100839.31;;;18.52;58.75
40089;BME280;25793;55.706;13.186;2022-08-21T01:40:12;100840.56;;;18.48;58.68
40089;BME280;25793;55.706;13.186;2022-08-21T01:42:44;100840.53;;;18.28;59.50
40089;BME280;25793;55.706;13.186;2022-08-21T01:45:13;100838.31;;;18.34;59.25
40089;BME280;25793;55.706;13.186;2022-08-21T01:47:40;100823.09;;;18.47;59.08
40089;BME280;25793;55.706;13.186;2022-08-21T01:50:10;100831.00;;;18.57;58.74
40089;BME280;25793;55.706;13.186;2022-08-21T01:52:37;100823.22;;;18.55;58.25
40089;BME280;25793;55.706;13.186;2022-08-21T01:55:06;100823.81;;;18.59;58.27
40089;BME280;25793;55.706;13.186;2022-08-21T01:57:33;100819.66;;;18.66;58.36
40089;BME280;25793;55.706;13.186;2022-08-21T02:00:00;100821.84;;;18.71;58.73
40089;BME280;25793;55.706;13.186;2022-08-21T02:02:38;100818.69;;;18.67;58.00
40089;BME280;25793;55.706;13.186;2022-08-21T02:05:05;100815.19;;;18.67;58.13
40089;BME280;25793;55.706;13.186;2022-08-21T02:07:37;100817.84;;;18.57;58.72
40089;BME280;25793;55.706;13.186;2022-08-21T02:10:06;100818.81;;;18.46;59.07
40089;BME280;25793;55.706;13.186;2022-08-21T02:12:33;100826.00;;;18.34;59.89
40089;BME280;25793;55.706;13.186;2022-08-21T02:15:00;100823.75;;;18.20;60.22
40089;BME280;25793;55.706;13.186;2022-08-21T02:17:27;100821.13;;;18.29;60.14
40089;BME280;25793;55.706;13.186;2022-08-21T02:19:53;100825.16;;;18.34;60.01
40089;BME280;25793;55.706;13.186;2022-08-21T02:22:20;100812.53;;;18.27;60.16
40089;BME280;25793;55.706;13.186;2022-08-21T02:24:47;100811.19;;;18.33;60.08
40089;BME280;25793;55.706;13.186;2022-08-21T02:27:22;100805.50;;;18.38;59.88
40089;BME280;25793;55.706;13.186;2022-08-21T02:29:56;100813.25;;;18.39;60.15
40089;BME280;25793;55.706;13.186;2022-08-21T02:32:24;100807.97;;;18.39;60.16
40089;BME280;25793;55.706;13.186;2022-08-21T02:34:51;100816.72;;;18.40;60.02
40089;BME280;25793;55.706;13.186;2022-08-21T02:37:18;100814.91;;;18.40;59.83
40089;BME280;25793;55.706;13.186;2022-08-21T02:39:45;100802.97;;;18.36;59.75
40089;BME280;25793;55.706;13.186;2022-08-21T02:42:12;100802.69;;;18.39;59.83
40089;BME280;25793;55.706;13.186;2022-08-21T02:44:38;100797.16;;;18.32;60.09
40089;BME280;25793;55.706;13.186;2022-08-21T02:47:05;100804.63;;;18.37;60.32
40089;BME280;25793;55.706;13.186;2022-08-21T02:49:32;100810.34;;;18.32;60.99
40089;BME280;25793;55.706;13.186;2022-08-21T02:52:01;100799.53;;;18.26;61.19
40089;BME280;25793;55.706;13.186;2022-08-21T02:54:27;100807.81;;;18.21;61.20
40089;BME280;25793;55.706;13.186;2022-08-21T02:56:54;100806.28;;;18.09;61.34
40089;BME280;25793;55.706;13.186;2022-08-21T02:59:21;100808.59;;;18.02;61.79
40089;BME280;25793;55.706;13.186;2022-08-21T03:01:47;100810.59;;;18.10;61.62
40089;BME280;25793;55.706;13.186;2022-08-21T03:04:14;100803.13;;;18.15;61.78
40089;BME280;25793;55.706;13.186;2022-08-21T03:06:41;100807.53;;;18.14;61.50
40089;BME280;25793;55.706;13.186;2022-08-21T03:09:08;100795.88;;;18.17;61.40
40089;BME280;25793;55.706;13.186;2022-08-21T03:11:34;100794.53;;;18.13;61.41
40089;BME280;25793;55.706;13.186;2022-08-21T03:14:02;100798.41;;;18.19;61.73
40089;BME280;25793;55.706;13.186;2022-08-21T03:16:28;100797.53;;;18.08;62.06
40089;BME280;25793;55.706;13.186;2022-08-21T03:19:00;100796.25;;;17.93;62.88
40089;BME280;25793;55.706;13.186;2022-08-21T03:21:27;100794.97;;;17.87;62.85
40089;BME280;25793;55.706;13.186;2022-08-21T03:23:54;100794.41;;;17.83;62.83
40089;BME280;25793;55.706;13.186;2022-08-21T03:26:21;100798.00;;;17.82;62.91
40089;BME280;25793;55.706;13.186;2022-08-21T03:28:49;100798.28;;;17.79;62.68
40089;BME280;25793;55.706;13.186;2022-08-21T03:31:17;100796.06;;;17.84;62.47
40089;BME280;25793;55.706;13.186;2022-08-21T03:33:44;100788.56;;;17.80;62.49
40089;BME280;25793;55.706;13.186;2022-08-21T03:36:10;100804.09;;;17.83;62.27
40089;BME280;25793;55.706;13.186;2022-08-21T03:38:37;100805.91;;;17.82;62.09
40089;BME280;25793;55.706;13.186;2022-08-21T03:41:06;100815.84;;;17.79;62.06
40089;BME280;25793;55.706;13.186;2022-08-21T03:43:34;100808.63;;;17.71;61.58
40089;BME280;25793;55.706;13.186;2022-08-21T03:46:02;100801.41;;;17.63;61.62
40089;BME280;25793;55.706;13.186;2022-08-21T03:48:29;100818.69;;;17.66;61.57
40089;BME280;25793;55.706;13.186;2022-08-21T03:50:56;100822.28;;;17.65;61.70
40089;BME280;25793;55.706;13.186;2022-08-21T03:53:23;100821.59;;;17.63;61.82
40089;BME280;25793;55.706;13.186;2022-08-21T03:55:51;100828.66;;;17.62;61.55
40089;BME280;25793;55.706;13.186;2022-08-21T03:58:22;100828.94;;;17.59;61.99
40089;BME280;25793;55.706;13.186;2022-08-21T04:00:51;100821.19;;;17.57;61.72
40089;BME280;25793;55.706;13.186;2022-08-21T04:03:18;100835.91;;;17.49;62.16
40089;BME280;25793;55.706;13.186;2022-08-21T04:05:46;100825.66;;;17.46;62.24
40089;BME280;25793;55.706;13.186;2022-08-21T04:08:14;100829.69;;;17.50;61.96
40089;BME280;25793;55.706;13.186;2022-08-21T04:10:42;100823.63;;;17.49;62.10
40089;BME280;25793;55.706;13.186;2022-08-21T04:13:11;100831.38;;;17.51;62.05
40089;BME280;25793;55.706;13.186;2022-08-21T04:15:38;100820.75;;;17.52;61.95
40089;BME280;25793;55.706;13.186;2022-08-21T04:18:04;100824.69;;;17.47;61.94
40089;BME280;25793;55.706;13.186;2022-08-21T04:20:32;100825.81;;;17.44;62.14
40089;BME280;25793;55.706;13.186;2022-08-21T04:22:59;100824.25;;;17.41;62.07
40089;BME280;25793;55.706;13.186;2022-08-21T04:25:27;100821.22;;;17.36;62.18
40089;BME280;25793;55.706;13.186;2022-08-21T04:27:54;100819.59;;;17.45;62.15
40089;BME280;25793;55.706;13.186;2022-08-21T04:30:21;100810.84;;;17.45;62.42
40089;BME280;25793;55.706;13.186;2022-08-21T04:32:55;100807.72;;;17.51;62.42
40089;BME280;25793;55.706;13.186;2022-08-21T04:35:26;100808.28;;;17.54;62.12
40089;BME280;25793;55.706;13.186;2022-08-21T04:37:53;100820.50;;;17.65;62.03
40089;BME280;25793;55.706;13.186;2022-08-21T04:40:21;100814.81;;;17.60;61.84
40089;BME280;25793;55.706;13.186;2022-08-21T04:42:52;100821.47;;;17.64;62.04
40089;BME280;25793;55.706;13.186;2022-08-21T04:45:36;100825.88;;;17.64;61.94
40089;BME280;25793;55.706;13.186;2022-08-21T04:48:07;100825.47;;;17.58;61.84
40089;BME280;25793;55.706;13.186;2022-08-21T04:50:47;100824.09;;;17.64;61.92
40089;BME280;25793;55.706;13.186;2022-08-21T04:56:02;100823.69;;;17.69;61.44
40089;BME280;25793;55.706;13.186;2022-08-21T04:58:31;100831.22;;;17.73;61.36
40089;BME280;25793;55.706;13.186;2022-08-21T05:01:00;100826.66;;;17.76;61.08
40089;BME280;25793;55.706;13.186;2022-08-21T05:03:29;100827.91;;;17.81;61.01
40089;BME280;25793;55.706;13.186;2022-08-21T05:05:57;100825.97;;;17.83;61.02
40089;BME280;25793;55.706;13.186;2022-08-21T05:08:26;100821.97;;;17.89;60.80
40089;BME280;25793;55.706;13.186;2022-08-21T05:10:54;100823.56;;;18.01;60.57
40089;BME280;25793;55.706;13.186;2022-08-21T05:13:26;100825.66;;;18.08;60.41
40089;BME280;25793;55.706;13.186;2022-08-21T05:15:53;100819.72;;;18.15;60.11
40089;BME280;25793;55.706;13.186;2022-08-21T05:18:22;100824.84;;;18.17;59.95
40089;BME280;25793;55.706;13.186;2022-08-21T05:20:50;100821.53;;;18.15;60.22
40089;BME280;25793;55.706;13.186;2022-08-21T05:23:17;100829.56;;;18.23;60.25
40089;BME280;25793;55.706;13.186;2022-08-21T05:25:43;100833.47;;;18.29;59.53
40089;BME280;25793;55.706;13.186;2022-08-21T05:28:11;100825.69;;;18.37;59.73
40089;BME280;25793;55.706;13.186;2022-08-21T05:30:39;100830.59;;;18.52;59.54
40089;BME280;25793;55.706;13.186;2022-08-21T05:33:06;100838.22;;;18.55;59.36
40089;BME280;25793;55.706;13.186;2022-08-21T05:35:34;100833.63;;;18.57;59.46
40089;BME280;25793;55.706;13.186;2022-08-21T05:38:01;100843.19;;;18.68;59.08
40089;BME280;25793;55.706;13.186;2022-08-21T05:40:28;100839.56;;;18.29;59.94
40089;BME280;25793;55.706;13.186;2022-08-21T05:42:55;100837.44;;;18.04;61.06
40089;BME280;25793;55.706;13.186;2022-08-21T05:45:28;100845.81;;;17.97;62.15
40089;BME280;25793;55.706;13.186;2022-08-21T05:48:20;100837.38;;;17.94;63.15
40089;BME280;25793;55.706;13.186;2022-08-21T05:50:50;100840.38;;;17.89;64.16
40089;BME280;25793;55.706;13.186;2022-08-21T05:53:19;100842.00;;;18.01;63.72
40089;BME280;25793;55.706;13.186;2022-08-21T05:55:47;100844.97;;;18.28;63.09
40089;BME280;25793;55.706;13.186;2022-08-21T05:58:16;100846.25;;;18.53;62.42
40089;BME280;25793;55.706;13.186;2022-08-21T06:00:45;100851.94;;;18.68;61.73
40089;BME280;25793;55.706;13.186;2022-08-21T06:03:16;100843.88;;;18.80;60.18
40089;BME280;25793;55.706;13.186;2022-08-21T06:05:44;100844.47;;;19.03;59.96
40089;BME280;25793;55.706;13.186;2022-08-21T06:08:13;100847.50;;;19.18;58.92
40089;BME280;25793;55.706;13.186;2022-08-21T06:10:40;100847.19;;;19.31;58.15
40089;BME280;25793;55.706;13.186;2022-08-21T06:13:08;100844.09;;;19.45;57.71
40089;BME280;25793;55.706;13.186;2022-08-21T06:15:35;100847.38;;;19.57;55.93
40089;BME280;25793;55.706;13.186;2022-08-21T06:18:02;100850.44;;;19.62;53.37
40089;BME280;25793;55.706;13.186;2022-08-21T06:20:29;100845.78;;;19.74;52.48
40089;BME280;25793;55.706;13.186;2022-08-21T06:22:56;100840.91;;;19.79;53.19
40089;BME280;25793;55.706;13.186;2022-08-21T06:25:23;100852.94;;;20.02;53.18
40089;BME280;25793;55.706;13.186;2022-08-21T06:27:51;100849.72;;;20.08;52.91
40089;BME280;25793;55.706;13.186;2022-08-21T06:30:18;100844.38;;;20.18;53.46
40089;BME280;25793;55.706;13.186;2022-08-21T06:32:45;100847.41;;;20.23;53.01
40089;BME280;25793;55.706;13.186;2022-08-21T06:35:11;100849.75;;;20.26;52.68
40089;BME280;25793;55.706;13.186;2022-08-21T06:37:38;100845.22;;;20.18;52.65
40089;BME280;25793;55.706;13.186;2022-08-21T06:40:05;100849.81;;;20.16;53.62
40089;BME280;25793;55.706;13.186;2022-08-21T06:42:38;100845.75;;;19.94;56.01
40089;BME280;25793;55.706;13.186;2022-08-21T06:45:09;100854.81;;;20.09;55.61
40089;BME280;25793;55.706;13.186;2022-08-21T06:47:35;100851.44;;;19.99;57.15
40089;BME280;25793;55.706;13.186;2022-08-21T06:50:02;100843.81;;;19.96;56.90
40089;BME280;25793;55.706;13.186;2022-08-21T06:52:30;100843.91;;;20.04;56.48
40089;BME280;25793;55.706;13.186;2022-08-21T06:54:58;100837.59;;;20.15;57.38
40089;BME280;25793;55.706;13.186;2022-08-21T06:57:27;100848.47;;;20.30;58.01
40089;BME280;25793;55.706;13.186;2022-08-21T06:59:54;100841.38;;;20.31;58.26
40089;BME280;25793;55.706;13.186;2022-08-21T07:02:21;100837.28;;;20.18;59.35
40089;BME280;25793;55.706;13.186;2022-08-21T07:04:50;100842.50;;;20.28;60.34
40089;BME280;25793;55.706;13.186;2022-08-21T07:07:17;100840.56;;;20.66;59.53
40089;BME280;25793;55.706;13.186;2022-08-21T07:09:44;100842.75;;;20.89;59.01
40089;BME280;25793;55.706;13.186;2022-08-21T07:12:11;100848.19;;;20.88;59.43
40089;BME280;25793;55.706;13.186;2022-08-21T07:14:41;100854.38;;;20.60;60.40
40089;BME280;25793;55.706;13.186;2022-08-21T07:17:08;100850.75;;;20.61;60.92
40089;BME280;25793;55.706;13.186;2022-08-21T07:19:35;100847.81;;;20.46;60.95
40089;BME280;25793;55.706;13.186;2022-08-21T07:22:02;100843.88;;;20.50;61.00
40089;BME280;25793;55.706;13.186;2022-08-21T07:24:29;100842.66;;;20.63;60.81
40089;BME280;25793;55.706;13.186;2022-08-21T07:26:57;100834.22;;;20.77;60.58
40089;BME280;25793;55.706;13.186;2022-08-21T07:29:24;100834.44;;;20.84;60.08
40089;BME280;25793;55.706;13.186;2022-08-21T07:31:51;100828.47;;;20.82;59.91
40089;BME280;25793;55.706;13.186;2022-08-21T07:34:18;100842.22;;;21.04;59.38
40089;BME280;25793;55.706;13.186;2022-08-21T07:36:44;100830.34;;;21.08;56.94
40089;BME280;25793;55.706;13.186;2022-08-21T07:39:14;100833.13;;;21.06;58.20
40089;BME280;25793;55.706;13.186;2022-08-21T07:41:41;100830.34;;;21.08;58.47
40089;BME280;25793;55.706;13.186;2022-08-21T07:44:13;100832.19;;;21.16;58.34
40089;BME280;25793;55.706;13.186;2022-08-21T07:46:40;100831.59;;;21.22;57.82
40089;BME280;25793;55.706;13.186;2022-08-21T07:49:07;100832.81;;;21.09;57.78
40089;BME280;25793;55.706;13.186;2022-08-21T07:51:34;100832.50;;;21.12;58.92
40089;BME280;25793;55.706;13.186;2022-08-21T07:54:01;100830.91;;;21.20;58.83
40089;BME280;25793;55.706;13.186;2022-08-21T07:56:30;100837.44;;;21.34;58.74
40089;BME280;25793;55.706;13.186;2022-08-21T07:58:57;100837.41;;;20.99;59.65
40089;BME280;25793;55.706;13.186;2022-08-21T08:01:24;100836.56;;;20.80;60.30
40089;BME280;25793;55.706;13.186;2022-08-21T08:03:54;100831.66;;;20.86;61.36
40089;BME280;25793;55.706;13.186;2022-08-21T08:06:21;100831.63;;;21.04;61.15
40089;BME280;25793;55.706;13.186;2022-08-21T08:08:49;100831.16;;;21.08;60.67
40089;BME280;25793;55.706;13.186;2022-08-21T08:11:20;100823.34;;;21.25;60.84
40089;BME280;25793;55.706;13.186;2022-08-21T08:13:49;100827.59;;;21.18;58.92
40089;BME280;25793;55.706;13.186;2022-08-21T08:16:16;100827.16;;;21.04;59.50
40089;BME280;25793;55.706;13.186;2022-08-21T08:18:43;100829.75;;;21.22;58.79
40089;BME280;25793;55.706;13.186;2022-08-21T08:21:12;100818.25;;;21.32;58.85
40089;BME280;25793;55.706;13.186;2022-08-21T08:23:42;100821.44;;;21.43;57.79
40089;BME280;25793;55.706;13.186;2022-08-21T08:26:10;100812.38;;;21.46;57.87
40089;BME280;25793;55.706;13.186;2022-08-21T08:28:44;100821.13;;;21.47;57.60
40089;BME280;25793;55.706;13.186;2022-08-21T08:31:13;100814.78;;;21.31;58.21
40089;BME280;25793;55.706;13.186;2022-08-21T08:33:40;100807.94;;;21.20;58.72
40089;BME280;25793;55.706;13.186;2022-08-21T08:36:14;100813.44;;;21.27;58.73
40089;BME280;25793;55.706;13.186;2022-08-21T08:38:41;100820.75;;;21.33;58.24
40089;BME280;25793;55.706;13.186;2022-08-21T08:41:20;100812.16;;;21.31;58.19
40089;BME280;25793;55.706;13.186;2022-08-21T08:43:54;100811.47;;;21.29;59.11
40089;BME280;25793;55.706;13.186;2022-08-21T08:46:49;100820.22;;;21.03;59.48
40089;BME280;25793;55.706;13.186;2022-08-21T08:49:31;100818.91;;;20.81;58.12
40089;BME280;25793;55.706;13.186;2022-08-21T08:52:18;100820.38;;;21.02;58.43
40089;BME280;25793;55.706;13.186;2022-08-21T08:55:00;100815.84;;;21.47;57.78
40089;BME280;25793;55.706;13.186;2022-08-21T08:57:29;100811.41;;;21.47;56.03
40089;BME280;25793;55.706;13.186;2022-08-21T08:59:59;100813.69;;;21.16;56.72
40089;BME280;25793;55.706;13.186;2022-08-21T09:02:28;100815.84;;;21.20;56.31
40089;BME280;25793;55.706;13.186;2022-08-21T09:04:55;100814.81;;;21.39;56.05
40089;BME280;25793;55.706;13.186;2022-08-21T09:10:19;100812.22;;;21.21;56.05
40089;BME280;25793;55.706;13.186;2022-08-21T09:16:24;100802.56;;;21.30;55.29
40089;BME280;25793;55.706;13.186;2022-08-21T09:21:49;100807.41;;;21.78;55.01
40089;BME280;25793;55.706;13.186;2022-08-21T09:24:26;100800.69;;;22.00;54.35
40089;BME280;25793;55.706;13.186;2022-08-21T09:27:07;100806.50;;;22.03;53.41
40089;BME280;25793;55.706;13.186;2022-08-21T09:29:38;100803.63;;;21.80;54.30
40089;BME280;25793;55.706;13.186;2022-08-21T09:32:19;100803.66;;;21.88;54.70
40089;BME280;25793;55.706;13.186;2022-08-21T09:37:34;100802.88;;;22.05;54.35
40089;BME280;25793;55.706;13.186;2022-08-21T09:40:13;100804.56;;;22.30;53.86
40089;BME280;25793;55.706;13.186;2022-08-21T09:42:41;100797.78;;;22.36;53.71
40089;BME280;25793;55.706;13.186;2022-08-21T09:45:14;100804.78;;;22.54;53.04
40089;BME280;25793;55.706;13.186;2022-08-21T09:47:42;100799.81;;;22.75;52.35
40089;BME280;25793;55.706;13.186;2022-08-21T09:50:14;100801.63;;;22.58;52.66
40089;BME280;25793;55.706;13.186;2022-08-21T09:52:50;100803.63;;;22.56;52.43
40089;BME280;25793;55.706;13.186;2022-08-21T09:55:23;100800.16;;;22.47;51.98
40089;BME280;25793;55.706;13.186;2022-08-21T09:58:11;100798.19;;;21.90;53.43
40089;BME280;25793;55.706;13.186;2022-08-21T10:00:38;100798.94;;;22.25;52.80
40089;BME280;25793;55.706;13.186;2022-08-21T10:03:16;100804.25;;;22.42;51.59
40089;BME280;25793;55.706;13.186;2022-08-21T10:05:52;100797.97;;;22.43;50.86
40089;BME280;25793;55.706;13.186;2022-08-21T10:08:24;100800.81;;;21.82;52.67
40089;BME280;25793;55.706;13.186;2022-08-21T10:11:08;100812.44;;;21.97;52.51
40089;BME280;25793;55.706;13.186;2022-08-21T10:14:06;100806.41;;;22.30;50.83
40089;BME280;25793;55.706;13.186;2022-08-21T10:30:17;100799.66;;;22.52;43.31
40089;BME280;25793;55.706;13.186;2022-08-21T10:33:11;100800.97;;;22.65;39.98
40089;BME280;25793;55.706;13.186;2022-08-21T10:44:38;100812.25;;;22.67;40.78
40089;BME280;25793;55.706;13.186;2022-08-21T10:49:54;100807.41;;;22.29;38.24
40089;BME280;25793;55.706;13.186;2022-08-21T10:55:14;100818.84;;;21.78;36.66
40089;BME280;25793;55.706;13.186;2022-08-21T10:57:59;100825.16;;;21.85;38.94
40089;BME280;25793;55.706;13.186;2022-08-21T11:00:51;100824.59;;;22.25;39.06
40089;BME280;25793;55.706;13.186;2022-08-21T11:03:25;100817.38;;;22.43;37.62
40089;BME280;25793;55.706;13.186;2022-08-21T11:06:11;100811.91;;;22.53;37.77
40089;BME280;25793;55.706;13.186;2022-08-21T11:09:01;100810.22;;;21.76;37.15
40089;BME280;25793;55.706;13.186;2022-08-21T11:11:38;100820.41;;;22.14;36.53
40089;BME280;25793;55.706;13.186;2022-08-21T11:17:41;100810.94;;;22.87;36.93
40089;BME280;25793;55.706;13.186;2022-08-21T11:20:26;100816.53;;;23.26;35.73
40089;BME280;25793;55.706;13.186;2022-08-21T11:26:06;100816.38;;;22.44;38.29
40089;BME280;25793;55.706;13.186;2022-08-21T11:28:52;100808.91;;;23.06;38.14
40089;BME280;25793;55.706;13.186;2022-08-21T11:34:20;100814.84;;;23.33;38.83
40089;BME280;25793;55.706;13.186;2022-08-21T11:36:59;100810.84;;;23.29;39.52
40089;BME280;25793;55.706;13.186;2022-08-21T11:42:20;100812.88;;;22.36;42.56
40089;BME280;25793;55.706;13.186;2022-08-21T11:48:08;100804.75;;;22.29;43.56
40089;BME280;25793;55.706;13.186;2022-08-21T11:50:37;100804.75;;;22.29;44.09
40089;BME280;25793;55.706;13.186;2022-08-21T11:53:26;100808.91;;;23.06;43.07
40089;BME280;25793;55.706;13.186;2022-08-21T11:56:10;100809.78;;;23.63;41.56
40089;BME280;25793;55.706;13.186;2022-08-21T11:58:42;100808.47;;;23.90;41.68
40089;BME280;25793;55.706;13.186;2022-08-21T12:01:16;100809.47;;;23.89;41.72
40089;BME280;25793;55.706;13.186;2022-08-21T12:03:59;100805.72;;;24.15;41.69
40089;BME280;25793;55.706;13.186;2022-08-21T12:09:03;100808.25;;;22.96;44.21
40089;BME280;25793;55.706;13.186;2022-08-21T12:11:30;100803.19;;;23.50;43.62
40089;BME280;25793;55.706;13.186;2022-08-21T12:14:17;100803.78;;;22.96;44.54
40089;BME280;25793;55.706;13.186;2022-08-21T12:16:49;100800.41;;;23.35;43.88
40089;BME280;25793;55.706;13.186;2022-08-21T12:19:29;100807.31;;;24.01;43.34
40089;BME280;25793;55.706;13.186;2022-08-21T12:24:33;100811.94;;;24.69;41.69
40089;BME280;25793;55.706;13.186;2022-08-21T12:33:01;100805.25;;;24.35;41.93
40089;BME280;25793;55.706;13.186;2022-08-21T12:35:41;100806.78;;;23.98;42.10
40089;BME280;25793;55.706;13.186;2022-08-21T12:38:33;100797.50;;;23.62;42.79
40089;BME280;25793;55.706;13.186;2022-08-21T12:41:33;100795.75;;;23.77;42.98
40089;BME280;25793;55.706;13.186;2022-08-21T12:44:07;100805.34;;;23.87;43.30
40089;BME280;25793;55.706;13.186;2022-08-21T12:46:45;100793.25;;;24.39;42.60
40089;BME280;25793;55.706;13.186;2022-08-21T12:49:18;100803.47;;;24.74;40.74
40089;BME280;25793;55.706;13.186;2022-08-21T12:51:55;100795.00;;;24.23;42.00
40089;BME280;25793;55.706;13.186;2022-08-21T12:54:29;100797.88;;;24.45;41.64
40089;BME280;25793;55.706;13.186;2022-08-21T12:57:02;100801.31;;;23.59;43.16
40089;BME280;25793;55.706;13.186;2022-08-21T12:59:38;100798.56;;;23.84;42.56
40089;BME280;25793;55.706;13.186;2022-08-21T13:02:16;100797.19;;;23.88;42.58
40089;BME280;25793;55.706;13.186;2022-08-21T13:04:45;100790.06;;;23.89;42.12
40089;BME280;25793;55.706;13.186;2022-08-21T13:07:19;100781.72;;;24.47;41.89
40089;BME280;25793;55.706;13.186;2022-08-21T13:10:30;100790.28;;;24.57;41.55
40089;BME280;25793;55.706;13.186;2022-08-21T13:13:03;100782.75;;;24.61;41.05
40089;BME280;25793;55.706;13.186;2022-08-21T13:15:49;100779.81;;;24.17;41.38
40089;BME280;25793;55.706;13.186;2022-08-21T13:18:26;100781.31;;;24.11;41.50
40089;BME280;25793;55.706;13.186;2022-08-21T13:21:12;100780.88;;;24.69;40.97
40089;BME280;25793;55.706;13.186;2022-08-21T13:23:40;100788.84;;;24.93;40.34
40089;BME280;25793;55.706;13.186;2022-08-21T13:26:16;100786.91;;;24.87;40.25
40089;BME280;25793;55.706;13.186;2022-08-21T13:28:48;100780.06;;;24.46;41.36
40089;BME280;25793;55.706;13.186;2022-08-21T13:31:23;100783.75;;;23.98;42.49
40089;BME280;25793;55.706;13.186;2022-08-21T13:33:54;100777.13;;;23.86;42.42
40089;BME280;25793;55.706;13.186;2022-08-21T13:36:27;100763.84;;;24.40;41.73
40089;BME280;25793;55.706;13.186;2022-08-21T13:39:08;100773.28;;;23.88;42.31
40089;BME280;25793;55.706;13.186;2022-08-21T13:41:43;100772.75;;;24.48;42.01
40089;BME280;25793;55.706;13.186;2022-08-21T13:44:20;100762.91;;;24.10;42.35
40089;BME280;25793;55.706;13.186;2022-08-21T13:46:53;100753.63;;;24.52;41.48
40089;BME280;25793;55.706;13.186;2022-08-21T13:49:35;100768.31;;;24.40;41.16
40089;BME280;25793;55.706;13.186;2022-08-21T13:52:26;100757.81;;;24.23;42.08
40089;BME280;25793;55.706;13.186;2022-08-21T13:54:59;100751.31;;;24.88;41.52
40089;BME280;25793;55.706;13.186;2022-08-21T13:57:31;100748.09;;;25.07;40.29
40089;BME280;25793;55.706;13.186;2022-08-21T14:02:50;100747.53;;;25.57;39.75
40089;BME280;25793;55.706;13.186;2022-08-21T14:05:28;100747.72;;;25.25;40.11
40089;BME280;25793;55.706;13.186;2022-08-21T14:08:06;100743.22;;;25.41;39.19
40089;BME280;25793;55.706;13.186;2022-08-21T14:10:48;100739.41;;;24.98;42.03
40089;BME280;25793;55.706;13.186;2022-08-21T14:15:57;100737.72;;;25.27;41.51